sensor_id;sensor_type;location;lat;lon;timestamp;temperature;humidity
66962;HTU21D;53897;51.126;5.868;2023-11-18T00:01:05;22.91;44.01
66962;HTU21D;53897;51.126;5.868;2023-11-18T00:03:31;22.90;43.97
66962;HTU21D;53897;51.126;5.868;2023-11-18T00:05:57;22.88;43.97
66962;HTU21D;53897;51.126;5.868;2023-11-18T00:08:22;22.85;43.95
66962;HTU21D;53897;51.126;5.868;2023-11-18T00:10:48;22.85;43.93
66962;HTU21D;53897;51.126;5.868;2023-11-18T00:13:14;22.83;43.93
66962;HTU21D;53897;51.126;5.868;2023-11-18T00:15:40;22.82;43.89
66962;HTU21D;53897;51.126;5.868;2023-11-18T00:18:05;22.82;43.87
66962;HTU21D;53897;51.126;5.868;2023-11-18T00:20:32;22.80;43.85
66962;HTU21D;53897;51.126;5.868;2023-11-18T00:22:57;22.79;43.82
66962;HTU21D;53897;51.126;5.868;2023-11-18T00:25:23;22.77;43.87
66962;HTU21D;53897;51.126;5.868;2023-11-18T00:27:49;22.75;43.85
66962;HTU21D;53897;51.126;5.868;2023-11-18T00:30:15;22.73;43.82
66962;HTU21D;53897;51.126;5.868;2023-11-18T00:32:41;22.72;43.79
66962;HTU21D;53897;51.126;5.868;2023-11-18T00:35:07;22.70;43.74
66962;HTU21D;53897;51.126;5.868;2023-11-18T00:37:35;22.69;43.70
66962;HTU21D;53897;51.126;5.868;2023-11-18T00:40:01;22.67;43.66
66962;HTU21D;53897;51.126;5.868;2023-11-18T00:42:27;22.66;43.63
66962;HTU21D;53897;51.126;5.868;2023-11-18T00:44:53;22.65;43.60
66962;HTU21D;53897;51.126;5.868;2023-11-18T00:47:21;22.64;43.54
66962;HTU21D;53897;51.126;5.868;2023-11-18T00:49:48;22.63;43.51
66962;HTU21D;53897;51.126;5.868;2023-11-18T00:52:15;22.62;43.48
66962;HTU21D;53897;51.126;5.868;2023-11-18T00:54:40;22.60;43.45
66962;HTU21D;53897;51.126;5.868;2023-11-18T00:57:06;22.58;43.42
66962;HTU21D;53897;51.126;5.868;2023-11-18T00:59:32;22.56;43.39
66962;HTU21D;53897;51.126;5.868;2023-11-18T01:01:58;22.55;43.35
66962;HTU21D;53897;51.126;5.868;2023-11-18T01:04:24;22.54;43.30
66962;HTU21D;53897;51.126;5.868;2023-11-18T01:06:51;22.53;43.29
66962;HTU21D;53897;51.126;5.868;2023-11-18T01:09:17;22.52;43.27
66962;HTU21D;53897;51.126;5.868;2023-11-18T01:11:42;22.50;43.22
66962;HTU21D;53897;51.126;5.868;2023-11-18T01:14:08;22.48;43.22
66962;HTU21D;53897;51.126;5.868;2023-11-18T01:16:34;22.47;43.16
66962;HTU21D;53897;51.126;5.868;2023-11-18T01:19:00;22.46;43.16
66962;HTU21D;53897;51.126;5.868;2023-11-18T01:21:25;22.43;43.12
66962;HTU21D;53897;51.126;5.868;2023-11-18T01:23:53;22.43;43.07
66962;HTU21D;53897;51.126;5.868;2023-11-18T01:26:18;22.40;43.03
66962;HTU21D;53897;51.126;5.868;2023-11-18T01:28:44;22.38;43.04
66962;HTU21D;53897;51.126;5.868;2023-11-18T01:31:11;22.38;43.00
66962;HTU21D;53897;51.126;5.868;2023-11-18T01:33:40;22.36;42.95
66962;HTU21D;53897;51.126;5.868;2023-11-18T01:36:08;22.36;42.92
66962;HTU21D;53897;51.126;5.868;2023-11-18T01:38:37;22.34;42.90
66962;HTU21D;53897;51.126;5.868;2023-11-18T01:41:05;22.34;42.93
66962;HTU21D;53897;51.126;5.868;2023-11-18T01:43:31;22.32;42.90
66962;HTU21D;53897;51.126;5.868;2023-11-18T01:46:03;22.29;42.91
66962;HTU21D;53897;51.126;5.868;2023-11-18T01:48:33;22.27;42.87
66962;HTU21D;53897;51.126;5.868;2023-11-18T01:50:59;22.26;42.86
66962;HTU21D;53897;51.126;5.868;2023-11-18T01:53:26;22.25;42.86
66962;HTU21D;53897;51.126;5.868;2023-11-18T01:55:52;22.24;42.81
66962;HTU21D;53897;51.126;5.868;2023-11-18T01:58:19;22.22;42.80
66962;HTU21D;53897;51.126;5.868;2023-11-18T02:00:46;22.22;42.77
66962;HTU21D;53897;51.126;5.868;2023-11-18T02:03:12;22.21;42.76
66962;HTU21D;53897;51.126;5.868;2023-11-18T02:05:38;22.19;42.75
66962;HTU21D;53897;51.126;5.868;2023-11-18T02:08:04;22.19;42.74
66962;HTU21D;53897;51.126;5.868;2023-11-18T02:10:49;22.17;42.71
66962;HTU21D;53897;51.126;5.868;2023-11-18T02:13:27;22.14;42.72
66962;HTU21D;53897;51.126;5.868;2023-11-18T02:15:56;22.12;42.69
66962;HTU21D;53897;51.126;5.868;2023-11-18T02:18:27;22.12;42.65
66962;HTU21D;53897;51.126;5.868;2023-11-18T02:20:55;22.10;42.68
66962;HTU21D;53897;51.126;5.868;2023-11-18T02:23:28;22.09;42.69
66962;HTU21D;53897;51.126;5.868;2023-11-18T02:25:54;22.07;42.68
66962;HTU21D;53897;51.126;5.868;2023-11-18T02:28:21;22.06;42.66
66962;HTU21D;53897;51.126;5.868;2023-11-18T02:30:50;22.04;42.62
66962;HTU21D;53897;51.126;5.868;2023-11-18T02:33:42;22.03;42.67
66962;HTU21D;53897;51.126;5.868;2023-11-18T02:36:19;22.03;42.68
66962;HTU21D;53897;51.126;5.868;2023-11-18T02:38:50;22.01;42.70
66962;HTU21D;53897;51.126;5.868;2023-11-18T02:41:20;21.98;42.67
66962;HTU21D;53897;51.126;5.868;2023-11-18T02:43:47;21.97;42.68
66962;HTU21D;53897;51.126;5.868;2023-11-18T02:46:15;21.97;42.67
66962;HTU21D;53897;51.126;5.868;2023-11-18T02:48:42;21.95;42.67
66962;HTU21D;53897;51.126;5.868;2023-11-18T02:51:09;21.94;42.67
66962;HTU21D;53897;51.126;5.868;2023-11-18T02:53:37;21.92;42.64
66962;HTU21D;53897;51.126;5.868;2023-11-18T02:56:03;21.92;42.63
66962;HTU21D;53897;51.126;5.868;2023-11-18T02:58:30;21.91;42.60
66962;HTU21D;53897;51.126;5.868;2023-11-18T03:00:56;21.89;42.61
66962;HTU21D;53897;51.126;5.868;2023-11-18T03:03:26;21.89;42.60
66962;HTU21D;53897;51.126;5.868;2023-11-18T03:05:53;21.87;42.62
66962;HTU21D;53897;51.126;5.868;2023-11-18T03:08:18;21.85;42.61
66962;HTU21D;53897;51.126;5.868;2023-11-18T03:10:44;21.85;42.61
66962;HTU21D;53897;51.126;5.868;2023-11-18T03:13:10;21.83;42.65
66962;HTU21D;53897;51.126;5.868;2023-11-18T03:15:37;21.82;42.65
66962;HTU21D;53897;51.126;5.868;2023-11-18T03:18:04;21.81;42.66
66962;HTU21D;53897;51.126;5.868;2023-11-18T03:20:33;21.80;42.65
66962;HTU21D;53897;51.126;5.868;2023-11-18T03:23:00;21.79;42.65
66962;HTU21D;53897;51.126;5.868;2023-11-18T03:25:27;21.77;42.65
66962;HTU21D;53897;51.126;5.868;2023-11-18T03:27:53;21.78;42.63
66962;HTU21D;53897;51.126;5.868;2023-11-18T03:30:20;21.77;42.66
66962;HTU21D;53897;51.126;5.868;2023-11-18T03:32:46;21.75;42.68
66962;HTU21D;53897;51.126;5.868;2023-11-18T03:35:12;21.73;42.68
66962;HTU21D;53897;51.126;5.868;2023-11-18T03:37:39;21.74;42.68
66962;HTU21D;53897;51.126;5.868;2023-11-18T03:40:11;21.72;42.64
66962;HTU21D;53897;51.126;5.868;2023-11-18T03:42:38;21.70;42.69
66962;HTU21D;53897;51.126;5.868;2023-11-18T03:45:05;21.69;42.69
66962;HTU21D;53897;51.126;5.868;2023-11-18T03:47:31;21.69;42.67
66962;HTU21D;53897;51.126;5.868;2023-11-18T03:49:57;21.67;42.71
66962;HTU21D;53897;51.126;5.868;2023-11-18T03:52:24;21.66;42.71
66962;HTU21D;53897;51.126;5.868;2023-11-18T03:54:49;21.64;42.76
66962;HTU21D;53897;51.126;5.868;2023-11-18T03:57:15;21.64;42.75
66962;HTU21D;53897;51.126;5.868;2023-11-18T03:59:41;21.63;42.70
66962;HTU21D;53897;51.126;5.868;2023-11-18T04:02:07;21.61;42.72
66962;HTU21D;53897;51.126;5.868;2023-11-18T04:04:33;21.60;42.74
66962;HTU21D;53897;51.126;5.868;2023-11-18T04:06:59;21.60;42.74
66962;HTU21D;53897;51.126;5.868;2023-11-18T04:09:27;21.59;42.71
66962;HTU21D;53897;51.126;5.868;2023-11-18T04:11:53;21.57;42.67
66962;HTU21D;53897;51.126;5.868;2023-11-18T04:14:18;21.55;42.67
66962;HTU21D;53897;51.126;5.868;2023-11-18T04:16:48;21.55;42.67
66962;HTU21D;53897;51.126;5.868;2023-11-18T04:19:17;21.54;42.71
66962;HTU21D;53897;51.126;5.868;2023-11-18T04:21:43;21.52;42.67
66962;HTU21D;53897;51.126;5.868;2023-11-18T04:24:13;21.52;42.68
66962;HTU21D;53897;51.126;5.868;2023-11-18T04:26:38;21.51;42.70
66962;HTU21D;53897;51.126;5.868;2023-11-18T04:29:04;21.50;42.70
66962;HTU21D;53897;51.126;5.868;2023-11-18T04:31:30;21.48;42.71
66962;HTU21D;53897;51.126;5.868;2023-11-18T04:33:56;21.47;42.71
66962;HTU21D;53897;51.126;5.868;2023-11-18T04:36:21;21.48;42.70
66962;HTU21D;53897;51.126;5.868;2023-11-18T04:38:48;21.46;42.70
66962;HTU21D;53897;51.126;5.868;2023-11-18T04:41:15;21.45;42.74
66962;HTU21D;53897;51.126;5.868;2023-11-18T04:43:41;21.44;42.72
66962;HTU21D;53897;51.126;5.868;2023-11-18T04:46:07;21.43;42.73
66962;HTU21D;53897;51.126;5.868;2023-11-18T04:48:34;21.42;42.76
66962;HTU21D;53897;51.126;5.868;2023-11-18T04:51:00;21.40;42.74
66962;HTU21D;53897;51.126;5.868;2023-11-18T04:53:26;21.40;42.75
66962;HTU21D;53897;51.126;5.868;2023-11-18T04:55:52;21.39;42.80
66962;HTU21D;53897;51.126;5.868;2023-11-18T04:58:18;21.38;42.74
66962;HTU21D;53897;51.126;5.868;2023-11-18T05:00:44;21.38;42.72
66962;HTU21D;53897;51.126;5.868;2023-11-18T05:03:10;21.36;42.73
66962;HTU21D;53897;51.126;5.868;2023-11-18T05:05:37;21.36;42.73
66962;HTU21D;53897;51.126;5.868;2023-11-18T05:08:06;21.36;42.74
66962;HTU21D;53897;51.126;5.868;2023-11-18T05:10:33;21.35;42.68
66962;HTU21D;53897;51.126;5.868;2023-11-18T05:12:59;21.34;42.68
66962;HTU21D;53897;51.126;5.868;2023-11-18T05:15:25;21.33;42.68
66962;HTU21D;53897;51.126;5.868;2023-11-18T05:17:54;21.31;42.68
66962;HTU21D;53897;51.126;5.868;2023-11-18T05:20:21;21.31;42.70
66962;HTU21D;53897;51.126;5.868;2023-11-18T05:22:47;21.31;42.68
66962;HTU21D;53897;51.126;5.868;2023-11-18T05:25:13;21.30;42.70
66962;HTU21D;53897;51.126;5.868;2023-11-18T05:27:40;21.29;42.73
66962;HTU21D;53897;51.126;5.868;2023-11-18T05:30:07;21.28;42.72
66962;HTU21D;53897;51.126;5.868;2023-11-18T05:32:33;21.25;42.69
66962;HTU21D;53897;51.126;5.868;2023-11-18T05:34:59;21.27;42.68
66962;HTU21D;53897;51.126;5.868;2023-11-18T05:37:25;21.25;42.69
66962;HTU21D;53897;51.126;5.868;2023-11-18T05:39:53;21.25;42.71
66962;HTU21D;53897;51.126;5.868;2023-11-18T05:42:28;21.23;42.68
66962;HTU21D;53897;51.126;5.868;2023-11-18T05:44:53;21.23;42.69
66962;HTU21D;53897;51.126;5.868;2023-11-18T05:47:25;21.22;42.69
66962;HTU21D;53897;51.126;5.868;2023-11-18T05:49:52;21.22;42.65
66962;HTU21D;53897;51.126;5.868;2023-11-18T05:52:19;21.21;42.68
66962;HTU21D;53897;51.126;5.868;2023-11-18T05:54:46;21.20;42.71
66962;HTU21D;53897;51.126;5.868;2023-11-18T05:57:16;21.19;42.73
66962;HTU21D;53897;51.126;5.868;2023-11-18T05:59:45;21.18;42.71
66962;HTU21D;53897;51.126;5.868;2023-11-18T06:02:13;21.18;42.69
66962;HTU21D;53897;51.126;5.868;2023-11-18T06:04:46;21.17;42.71
66962;HTU21D;53897;51.126;5.868;2023-11-18T06:07:13;21.16;42.70
66962;HTU21D;53897;51.126;5.868;2023-11-18T06:09:41;21.16;42.71
66962;HTU21D;53897;51.126;5.868;2023-11-18T06:12:10;21.15;42.70
66962;HTU21D;53897;51.126;5.868;2023-11-18T06:14:37;21.13;42.70
66962;HTU21D;53897;51.126;5.868;2023-11-18T06:17:03;21.14;42.65
66962;HTU21D;53897;51.126;5.868;2023-11-18T06:19:29;21.13;42.68
66962;HTU21D;53897;51.126;5.868;2023-11-18T06:21:54;21.09;42.58
66962;HTU21D;53897;51.126;5.868;2023-11-18T06:24:20;21.09;42.58
66962;HTU21D;53897;51.126;5.868;2023-11-18T06:26:47;21.06;42.67
66962;HTU21D;53897;51.126;5.868;2023-11-18T06:29:15;21.04;42.75
66962;HTU21D;53897;51.126;5.868;2023-11-18T06:31:41;21.04;42.87
66962;HTU21D;53897;51.126;5.868;2023-11-18T06:34:08;21.03;43.04
66962;HTU21D;53897;51.126;5.868;2023-11-18T06:36:34;21.06;43.17
66962;HTU21D;53897;51.126;5.868;2023-11-18T06:38:59;21.08;43.22
66962;HTU21D;53897;51.126;5.868;2023-11-18T06:41:25;21.14;43.22
66962;HTU21D;53897;51.126;5.868;2023-11-18T06:43:59;21.19;43.20
66962;HTU21D;53897;51.126;5.868;2023-11-18T06:46:32;21.24;43.19
66962;HTU21D;53897;51.126;5.868;2023-11-18T06:49:01;21.31;43.18
66962;HTU21D;53897;51.126;5.868;2023-11-18T06:51:33;21.36;43.13
66962;HTU21D;53897;51.126;5.868;2023-11-18T06:54:06;21.42;43.08
66962;HTU21D;53897;51.126;5.868;2023-11-18T06:56:37;21.45;43.06
66962;HTU21D;53897;51.126;5.868;2023-11-18T06:59:05;21.49;43.06
66962;HTU21D;53897;51.126;5.868;2023-11-18T07:01:32;21.52;43.03
66962;HTU21D;53897;51.126;5.868;2023-11-18T07:03:58;21.55;43.03
66962;HTU21D;53897;51.126;5.868;2023-11-18T07:06:24;21.59;43.07
66962;HTU21D;53897;51.126;5.868;2023-11-18T07:08:53;21.61;43.00
66962;HTU21D;53897;51.126;5.868;2023-11-18T07:11:19;21.63;42.86
66962;HTU21D;53897;51.126;5.868;2023-11-18T07:13:47;21.64;42.88
66962;HTU21D;53897;51.126;5.868;2023-11-18T07:16:13;21.67;43.03
66962;HTU21D;53897;51.126;5.868;2023-11-18T07:18:40;21.69;42.99
66962;HTU21D;53897;51.126;5.868;2023-11-18T07:21:07;21.69;42.96
66962;HTU21D;53897;51.126;5.868;2023-11-18T07:23:35;21.72;43.06
66962;HTU21D;53897;51.126;5.868;2023-11-18T07:26:02;21.74;43.13
66962;HTU21D;53897;51.126;5.868;2023-11-18T07:28:29;21.75;43.16
66962;HTU21D;53897;51.126;5.868;2023-11-18T07:30:55;21.77;43.16
66962;HTU21D;53897;51.126;5.868;2023-11-18T07:33:21;21.77;43.17
66962;HTU21D;53897;51.126;5.868;2023-11-18T07:35:48;21.78;43.13
66962;HTU21D;53897;51.126;5.868;2023-11-18T07:38:14;21.78;43.13
66962;HTU21D;53897;51.126;5.868;2023-11-18T07:40:40;21.77;43.17
66962;HTU21D;53897;51.126;5.868;2023-11-18T07:43:12;21.79;43.27
66962;HTU21D;53897;51.126;5.868;2023-11-18T07:45:39;21.80;43.34
66962;HTU21D;53897;51.126;5.868;2023-11-18T07:48:05;21.83;43.36
66962;HTU21D;53897;51.126;5.868;2023-11-18T07:50:40;21.85;43.29
66962;HTU21D;53897;51.126;5.868;2023-11-18T07:53:07;21.87;43.28
66962;HTU21D;53897;51.126;5.868;2023-11-18T07:55:34;21.89;43.25
66962;HTU21D;53897;51.126;5.868;2023-11-18T07:58:03;21.91;43.23
66962;HTU21D;53897;51.126;5.868;2023-11-18T08:00:29;21.93;43.22
66962;HTU21D;53897;51.126;5.868;2023-11-18T08:02:59;21.93;43.17
66962;HTU21D;53897;51.126;5.868;2023-11-18T08:05:28;21.95;42.86
66962;HTU21D;53897;51.126;5.868;2023-11-18T08:07:57;21.95;42.64
66962;HTU21D;53897;51.126;5.868;2023-11-18T08:10:22;21.95;42.62
66962;HTU21D;53897;51.126;5.868;2023-11-18T08:12:50;21.96;42.71
66962;HTU21D;53897;51.126;5.868;2023-11-18T08:15:17;21.97;42.83
66962;HTU21D;53897;51.126;5.868;2023-11-18T08:17:44;21.99;42.92
66962;HTU21D;53897;51.126;5.868;2023-11-18T08:20:10;21.98;42.92
66962;HTU21D;53897;51.126;5.868;2023-11-18T08:22:49;21.99;43.03
66962;HTU21D;53897;51.126;5.868;2023-11-18T08:25:15;22.01;43.13
66962;HTU21D;53897;51.126;5.868;2023-11-18T08:27:45;22.02;43.26
66962;HTU21D;53897;51.126;5.868;2023-11-18T08:30:12;22.03;43.34
66962;HTU21D;53897;51.126;5.868;2023-11-18T08:32:39;22.04;43.29
66962;HTU21D;53897;51.126;5.868;2023-11-18T08:35:08;22.05;43.37
66962;HTU21D;53897;51.126;5.868;2023-11-18T08:37:38;22.07;43.45
66962;HTU21D;53897;51.126;5.868;2023-11-18T08:40:05;22.08;43.40
66962;HTU21D;53897;51.126;5.868;2023-11-18T08:42:45;22.10;43.47
66962;HTU21D;53897;51.126;5.868;2023-11-18T08:45:20;22.11;43.52
66962;HTU21D;53897;51.126;5.868;2023-11-18T08:47:53;22.11;43.47
66962;HTU21D;53897;51.126;5.868;2023-11-18T08:50:19;22.13;43.45
66962;HTU21D;53897;51.126;5.868;2023-11-18T08:52:50;22.14;43.41
66962;HTU21D;53897;51.126;5.868;2023-11-18T08:55:19;22.16;43.35
66962;HTU21D;53897;51.126;5.868;2023-11-18T08:57:51;22.16;43.29
66962;HTU21D;53897;51.126;5.868;2023-11-18T09:00:31;22.17;43.28
66962;HTU21D;53897;51.126;5.868;2023-11-18T09:03:15;22.16;43.38
66962;HTU21D;53897;51.126;5.868;2023-11-18T09:05:51;22.18;43.44
66962;HTU21D;53897;51.126;5.868;2023-11-18T09:08:36;22.18;43.51
66962;HTU21D;53897;51.126;5.868;2023-11-18T09:11:06;22.19;43.49
66962;HTU21D;53897;51.126;5.868;2023-11-18T09:13:33;22.22;43.58
66962;HTU21D;53897;51.126;5.868;2023-11-18T09:16:06;22.21;43.64
66962;HTU21D;53897;51.126;5.868;2023-11-18T09:18:36;22.24;43.70
66962;HTU21D;53897;51.126;5.868;2023-11-18T09:21:05;22.25;43.72
66962;HTU21D;53897;51.126;5.868;2023-11-18T09:23:34;22.27;43.70
66962;HTU21D;53897;51.126;5.868;2023-11-18T09:26:01;22.31;43.68
66962;HTU21D;53897;51.126;5.868;2023-11-18T09:28:28;22.32;43.67
66962;HTU21D;53897;51.126;5.868;2023-11-18T09:30:57;22.33;43.47
66962;HTU21D;53897;51.126;5.868;2023-11-18T09:33:25;22.34;43.41
66962;HTU21D;53897;51.126;5.868;2023-11-18T09:36:08;22.34;43.45
66962;HTU21D;53897;51.126;5.868;2023-11-18T09:38:39;22.35;43.43
66962;HTU21D;53897;51.126;5.868;2023-11-18T09:41:10;22.36;43.42
66962;HTU21D;53897;51.126;5.868;2023-11-18T09:43:39;22.37;43.40
66962;HTU21D;53897;51.126;5.868;2023-11-18T09:46:12;22.38;43.37
66962;HTU21D;53897;51.126;5.868;2023-11-18T09:48:42;22.39;43.37
66962;HTU21D;53897;51.126;5.868;2023-11-18T09:51:09;22.41;43.36
66962;HTU21D;53897;51.126;5.868;2023-11-18T09:53:39;22.41;43.29
66962;HTU21D;53897;51.126;5.868;2023-11-18T09:56:10;22.41;43.26
66962;HTU21D;53897;51.126;5.868;2023-11-18T09:59:18;22.43;43.20
66962;HTU21D;53897;51.126;5.868;2023-11-18T10:01:57;22.43;43.19
66962;HTU21D;53897;51.126;5.868;2023-11-18T10:04:24;22.46;43.19
66962;HTU21D;53897;51.126;5.868;2023-11-18T10:07:02;22.47;43.19
66962;HTU21D;53897;51.126;5.868;2023-11-18T10:09:29;22.47;43.19
66962;HTU21D;53897;51.126;5.868;2023-11-18T10:11:55;22.47;43.05
66962;HTU21D;53897;51.126;5.868;2023-11-18T10:14:34;22.47;42.89
66962;HTU21D;53897;51.126;5.868;2023-11-18T10:17:07;22.49;42.83
66962;HTU21D;53897;51.126;5.868;2023-11-18T10:19:56;22.47;42.84
66962;HTU21D;53897;51.126;5.868;2023-11-18T10:22:26;22.48;42.76
66962;HTU21D;53897;51.126;5.868;2023-11-18T10:24:53;22.47;42.74
66962;HTU21D;53897;51.126;5.868;2023-11-18T10:27:27;22.48;42.69
66962;HTU21D;53897;51.126;5.868;2023-11-18T10:30:04;22.47;42.65
66962;HTU21D;53897;51.126;5.868;2023-11-18T10:32:31;22.46;42.58
66962;HTU21D;53897;51.126;5.868;2023-11-18T10:35:03;22.46;42.45
66962;HTU21D;53897;51.126;5.868;2023-11-18T10:37:31;22.42;42.51
66962;HTU21D;53897;51.126;5.868;2023-11-18T10:39:57;22.39;42.61
66962;HTU21D;53897;51.126;5.868;2023-11-18T10:42:26;22.34;42.77
66962;HTU21D;53897;51.126;5.868;2023-11-18T10:44:57;22.29;42.93
66962;HTU21D;53897;51.126;5.868;2023-11-18T10:47:26;22.27;43.06
66962;HTU21D;53897;51.126;5.868;2023-11-18T10:49:53;22.29;43.13
66962;HTU21D;53897;51.126;5.868;2023-11-18T10:52:22;22.31;43.01
66962;HTU21D;53897;51.126;5.868;2023-11-18T10:54:52;22.34;42.98
66962;HTU21D;53897;51.126;5.868;2023-11-18T10:57:20;22.34;43.03
66962;HTU21D;53897;51.126;5.868;2023-11-18T11:00:04;22.39;43.04
66962;HTU21D;53897;51.126;5.868;2023-11-18T11:02:41;22.42;43.06
66962;HTU21D;53897;51.126;5.868;2023-11-18T11:05:08;22.46;43.22
66962;HTU21D;53897;51.126;5.868;2023-11-18T11:07:35;22.48;43.45
66962;HTU21D;53897;51.126;5.868;2023-11-18T11:10:03;22.50;43.67
66962;HTU21D;53897;51.126;5.868;2023-11-18T11:12:35;22.52;44.22
66962;HTU21D;53897;51.126;5.868;2023-11-18T11:15:12;22.55;44.73
66962;HTU21D;53897;51.126;5.868;2023-11-18T11:17:52;22.57;45.22
66962;HTU21D;53897;51.126;5.868;2023-11-18T11:20:25;22.60;45.44
66962;HTU21D;53897;51.126;5.868;2023-11-18T11:23:08;22.62;45.40
66962;HTU21D;53897;51.126;5.868;2023-11-18T11:25:51;22.64;45.62
66962;HTU21D;53897;51.126;5.868;2023-11-18T11:28:23;22.65;45.16
66962;HTU21D;53897;51.126;5.868;2023-11-18T11:33:33;22.66;45.67
66962;HTU21D;53897;51.126;5.868;2023-11-18T11:36:12;22.66;45.56
66962;HTU21D;53897;51.126;5.868;2023-11-18T11:38:38;22.67;45.43
66962;HTU21D;53897;51.126;5.868;2023-11-18T11:41:05;22.68;45.33
66962;HTU21D;53897;51.126;5.868;2023-11-18T11:43:34;22.70;45.28
66962;HTU21D;53897;51.126;5.868;2023-11-18T11:46:03;22.72;45.36
66962;HTU21D;53897;51.126;5.868;2023-11-18T11:48:38;22.72;45.35
66962;HTU21D;53897;51.126;5.868;2023-11-18T11:51:22;22.73;45.38
66962;HTU21D;53897;51.126;5.868;2023-11-18T11:54:06;22.75;45.37
66962;HTU21D;53897;51.126;5.868;2023-11-18T11:56:48;22.77;45.33
66962;HTU21D;53897;51.126;5.868;2023-11-18T12:02:22;22.77;45.25
66962;HTU21D;53897;51.126;5.868;2023-11-18T12:04:53;22.78;45.21
66962;HTU21D;53897;51.126;5.868;2023-11-18T12:07:24;22.78;45.16
66962;HTU21D;53897;51.126;5.868;2023-11-18T12:09:59;22.79;45.16
66962;HTU21D;53897;51.126;5.868;2023-11-18T12:12:27;22.80;45.12
66962;HTU21D;53897;51.126;5.868;2023-11-18T12:14:58;22.81;45.05
66962;HTU21D;53897;51.126;5.868;2023-11-18T12:20:43;22.86;44.79
66962;HTU21D;53897;51.126;5.868;2023-11-18T12:23:20;22.87;44.73
66962;HTU21D;53897;51.126;5.868;2023-11-18T12:25:50;22.87;44.75
66962;HTU21D;53897;51.126;5.868;2023-11-18T12:28:24;22.87;44.93
66962;HTU21D;53897;51.126;5.868;2023-11-18T12:30:55;22.88;45.03
66962;HTU21D;53897;51.126;5.868;2023-11-18T12:33:26;22.90;45.07
66962;HTU21D;53897;51.126;5.868;2023-11-18T12:41:43;22.95;45.09
66962;HTU21D;53897;51.126;5.868;2023-11-18T12:47:00;22.97;45.09
66962;HTU21D;53897;51.126;5.868;2023-11-18T12:49:44;23.00;45.09
66962;HTU21D;53897;51.126;5.868;2023-11-18T12:52:11;23.00;45.08
66962;HTU21D;53897;51.126;5.868;2023-11-18T12:54:41;23.01;45.06
66962;HTU21D;53897;51.126;5.868;2023-11-18T12:57:09;23.02;44.99
66962;HTU21D;53897;51.126;5.868;2023-11-18T12:59:37;23.03;44.94
66962;HTU21D;53897;51.126;5.868;2023-11-18T13:02:10;23.05;44.87
66962;HTU21D;53897;51.126;5.868;2023-11-18T13:04:41;23.06;44.79
66962;HTU21D;53897;51.126;5.868;2023-11-18T13:07:07;23.05;44.67
66962;HTU21D;53897;51.126;5.868;2023-11-18T13:09:37;23.05;44.67
66962;HTU21D;53897;51.126;5.868;2023-11-18T13:12:04;23.02;44.67
66962;HTU21D;53897;51.126;5.868;2023-11-18T13:14:33;23.03;44.67
66962;HTU21D;53897;51.126;5.868;2023-11-18T13:17:03;23.02;44.64
66962;HTU21D;53897;51.126;5.868;2023-11-18T13:19:32;23.03;44.63
66962;HTU21D;53897;51.126;5.868;2023-11-18T13:22:02;23.03;44.61
66962;HTU21D;53897;51.126;5.868;2023-11-18T13:24:32;23.02;44.64
66962;HTU21D;53897;51.126;5.868;2023-11-18T13:27:00;23.02;44.69
66962;HTU21D;53897;51.126;5.868;2023-11-18T13:29:30;23.01;44.69
66962;HTU21D;53897;51.126;5.868;2023-11-18T13:31:58;23.03;44.74
66962;HTU21D;53897;51.126;5.868;2023-11-18T13:34:27;23.05;44.74
66962;HTU21D;53897;51.126;5.868;2023-11-18T13:36:53;23.06;44.66
66962;HTU21D;53897;51.126;5.868;2023-11-18T13:39:20;23.03;44.64
66962;HTU21D;53897;51.126;5.868;2023-11-18T13:41:49;23.06;44.67
66962;HTU21D;53897;51.126;5.868;2023-11-18T13:44:35;23.07;44.67
66962;HTU21D;53897;51.126;5.868;2023-11-18T13:47:01;23.07;44.66
66962;HTU21D;53897;51.126;5.868;2023-11-18T13:49:33;23.07;44.65
66962;HTU21D;53897;51.126;5.868;2023-11-18T13:52:02;23.07;44.65
66962;HTU21D;53897;51.126;5.868;2023-11-18T13:54:28;23.10;44.63
66962;HTU21D;53897;51.126;5.868;2023-11-18T13:57:01;23.10;44.59
66962;HTU21D;53897;51.126;5.868;2023-11-18T13:59:29;23.11;44.51
66962;HTU21D;53897;51.126;5.868;2023-11-18T14:01:55;23.12;44.47
66962;HTU21D;53897;51.126;5.868;2023-11-18T14:04:26;23.11;44.45
66962;HTU21D;53897;51.126;5.868;2023-11-18T14:06:57;23.12;44.38
66962;HTU21D;53897;51.126;5.868;2023-11-18T14:09:23;23.13;44.31
66962;HTU21D;53897;51.126;5.868;2023-11-18T14:11:55;23.12;44.31
66962;HTU21D;53897;51.126;5.868;2023-11-18T14:14:25;23.12;44.22
66962;HTU21D;53897;51.126;5.868;2023-11-18T14:16:53;23.13;44.19
66962;HTU21D;53897;51.126;5.868;2023-11-18T14:19:19;23.15;44.13
66962;HTU21D;53897;51.126;5.868;2023-11-18T14:21:45;23.15;44.09
66962;HTU21D;53897;51.126;5.868;2023-11-18T14:24:11;23.14;44.06
66962;HTU21D;53897;51.126;5.868;2023-11-18T14:26:37;23.16;44.04
66962;HTU21D;53897;51.126;5.868;2023-11-18T14:29:06;23.17;44.03
66962;HTU21D;53897;51.126;5.868;2023-11-18T14:31:33;23.16;44.01
66962;HTU21D;53897;51.126;5.868;2023-11-18T14:34:03;23.16;44.00
66962;HTU21D;53897;51.126;5.868;2023-11-18T14:36:29;23.16;43.92
66962;HTU21D;53897;51.126;5.868;2023-11-18T14:38:55;23.16;43.92
66962;HTU21D;53897;51.126;5.868;2023-11-18T14:41:22;23.16;43.89
66962;HTU21D;53897;51.126;5.868;2023-11-18T14:43:51;23.16;43.87
66962;HTU21D;53897;51.126;5.868;2023-11-18T14:46:17;23.15;43.88
66962;HTU21D;53897;51.126;5.868;2023-11-18T14:48:44;23.16;43.92
66962;HTU21D;53897;51.126;5.868;2023-11-18T14:51:10;23.17;43.94
66962;HTU21D;53897;51.126;5.868;2023-11-18T14:53:37;23.17;43.94
66962;HTU21D;53897;51.126;5.868;2023-11-18T14:56:04;23.16;43.97
66962;HTU21D;53897;51.126;5.868;2023-11-18T14:58:31;23.16;44.09
66962;HTU21D;53897;51.126;5.868;2023-11-18T15:01:01;23.16;44.33
66962;HTU21D;53897;51.126;5.868;2023-11-18T15:03:28;23.16;44.45
66962;HTU21D;53897;51.126;5.868;2023-11-18T15:05:54;23.17;44.79
66962;HTU21D;53897;51.126;5.868;2023-11-18T15:08:20;23.18;45.18
66962;HTU21D;53897;51.126;5.868;2023-11-18T15:10:45;23.17;45.43
66962;HTU21D;53897;51.126;5.868;2023-11-18T15:13:11;23.16;45.48
66962;HTU21D;53897;51.126;5.868;2023-11-18T15:15:41;23.15;45.55
66962;HTU21D;53897;51.126;5.868;2023-11-18T15:18:08;23.15;45.54
66962;HTU21D;53897;51.126;5.868;2023-11-18T15:20:48;23.14;45.48
66962;HTU21D;53897;51.126;5.868;2023-11-18T15:23:16;23.15;45.46
66962;HTU21D;53897;51.126;5.868;2023-11-18T15:25:48;23.14;45.45
66962;HTU21D;53897;51.126;5.868;2023-11-18T15:28:17;23.14;45.40
66962;HTU21D;53897;51.126;5.868;2023-11-18T15:30:44;23.14;45.36
66962;HTU21D;53897;51.126;5.868;2023-11-18T15:33:10;23.14;45.35
66962;HTU21D;53897;51.126;5.868;2023-11-18T15:35:39;23.12;45.30
66962;HTU21D;53897;51.126;5.868;2023-11-18T15:38:13;23.12;45.32
66962;HTU21D;53897;51.126;5.868;2023-11-18T15:40:42;23.12;45.25
66962;HTU21D;53897;51.126;5.868;2023-11-18T15:43:08;23.11;45.28